sensor_id;sensor_type;location;lat;lon;timestamp;P1;durP1;ratioP1;P2;durP2;ratioP2
18376;SDS011;9315;52.624;13.544;2023-04-24T00:00:03;9.80;;;5.53;;
18376;SDS011;9315;52.624;13.544;2023-04-24T00:02:32;9.00;;;6.10;;
18376;SDS011;9315;52.624;13.544;2023-04-24T00:05:00;9.00;;;5.47;;
18376;SDS011;9315;52.624;13.544;2023-04-24T00:07:28;9.00;;;6.47;;
18376;SDS011;9315;52.624;13.544;2023-04-24T00:09:56;5.30;;;4.53;;
18376;SDS011;9315;52.624;13.544;2023-04-24T00:12:24;6.50;;;4.10;;
18376;SDS011;9315;52.624;13.544;2023-04-24T00:14:52;7.70;;;5.23;;
18376;SDS011;9315;52.624;13.544;2023-04-24T00:17:21;6.63;;;5.10;;
18376;SDS011;9315;52.624;13.544;2023-04-24T00:19:48;9.77;;;4.47;;
18376;SDS011;9315;52.624;13.544;2023-04-24T00:22:24;8.03;;;4.70;;
18376;SDS011;9315;52.624;13.544;2023-04-24T00:24:52;8.77;;;5.30;;
18376;SDS011;9315;52.624;13.544;2023-04-24T00:27:20;16.30;;;6.53;;
18376;SDS011;9315;52.624;13.544;2023-04-24T00:29:48;6.93;;;5.10;;
18376;SDS011;9315;52.624;13.544;2023-04-24T00:32:15;9.23;;;6.90;;
18376;SDS011;9315;52.624;13.544;2023-04-24T00:34:45;6.00;;;4.03;;
18376;SDS011;9315;52.624;13.544;2023-04-24T00:37:12;6.67;;;4.73;;
18376;SDS011;9315;52.624;13.544;2023-04-24T00:39:39;7.17;;;5.70;;
18376;SDS011;9315;52.624;13.544;2023-04-24T00:42:10;8.13;;;6.40;;
18376;SDS011;9315;52.624;13.544;2023-04-24T00:44:39;4.60;;;4.13;;
18376;SDS011;9315;52.624;13.544;2023-04-24T00:47:15;5.47;;;4.70;;
18376;SDS011;9315;52.624;13.544;2023-04-24T00:49:47;7.77;;;5.90;;
18376;SDS011;9315;52.624;13.544;2023-04-24T00:52:14;6.80;;;5.57;;
18376;SDS011;9315;52.624;13.544;2023-04-24T00:54:44;5.90;;;4.40;;
18376;SDS011;9315;52.624;13.544;2023-04-24T00:57:11;6.37;;;5.17;;
18376;SDS011;9315;52.624;13.544;2023-04-24T00:59:43;6.93;;;4.53;;
18376;SDS011;9315;52.624;13.544;2023-04-24T01:02:14;8.80;;;5.30;;
18376;SDS011;9315;52.624;13.544;2023-04-24T01:04:41;13.10;;;5.13;;
18376;SDS011;9315;52.624;13.544;2023-04-24T01:07:09;8.60;;;6.03;;
18376;SDS011;9315;52.624;13.544;2023-04-24T01:09:40;4.33;;;3.93;;
18376;SDS011;9315;52.624;13.544;2023-04-24T01:12:08;9.27;;;5.00;;
18376;SDS011;9315;52.624;13.544;2023-04-24T01:14:36;6.47;;;4.57;;
18376;SDS011;9315;52.624;13.544;2023-04-24T01:17:04;7.10;;;5.60;;
18376;SDS011;9315;52.624;13.544;2023-04-24T01:19:31;9.03;;;5.87;;
18376;SDS011;9315;52.624;13.544;2023-04-24T01:21:59;10.93;;;5.70;;
18376;SDS011;9315;52.624;13.544;2023-04-24T01:24:30;8.80;;;6.40;;
18376;SDS011;9315;52.624;13.544;2023-04-24T01:26:57;7.97;;;6.33;;
18376;SDS011;9315;52.624;13.544;2023-04-24T01:29:24;10.77;;;7.57;;
18376;SDS011;9315;52.624;13.544;2023-04-24T01:31:55;11.83;;;6.73;;
18376;SDS011;9315;52.624;13.544;2023-04-24T01:34:24;11.03;;;6.73;;
18376;SDS011;9315;52.624;13.544;2023-04-24T01:36:55;9.60;;;7.13;;
18376;SDS011;9315;52.624;13.544;2023-04-24T01:39:22;10.60;;;6.90;;
18376;SDS011;9315;52.624;13.544;2023-04-24T01:41:51;8.30;;;6.57;;
18376;SDS011;9315;52.624;13.544;2023-04-24T01:44:19;6.53;;;4.10;;
18376;SDS011;9315;52.624;13.544;2023-04-24T01:46:48;6.27;;;3.80;;
18376;SDS011;9315;52.624;13.544;2023-04-24T01:49:15;5.00;;;4.33;;
18376;SDS011;9315;52.624;13.544;2023-04-24T01:51:42;6.07;;;5.07;;
18376;SDS011;9315;52.624;13.544;2023-04-24T01:54:09;6.73;;;4.17;;
18376;SDS011;9315;52.624;13.544;2023-04-24T01:56:37;5.90;;;4.83;;
18376;SDS011;9315;52.624;13.544;2023-04-24T01:59:10;7.70;;;6.60;;
18376;SDS011;9315;52.624;13.544;2023-04-24T02:01:38;5.23;;;4.63;;
18376;SDS011;9315;52.624;13.544;2023-04-24T02:04:06;9.90;;;6.93;;
18376;SDS011;9315;52.624;13.544;2023-04-24T02:06:34;11.07;;;6.00;;
18376;SDS011;9315;52.624;13.544;2023-04-24T02:09:01;9.40;;;6.07;;
18376;SDS011;9315;52.624;13.544;2023-04-24T02:11:31;5.70;;;4.47;;
18376;SDS011;9315;52.624;13.544;2023-04-24T02:14:00;8.97;;;5.83;;
18376;SDS011;9315;52.624;13.544;2023-04-24T02:16:28;7.47;;;5.27;;
18376;SDS011;9315;52.624;13.544;2023-04-24T02:18:59;6.03;;;5.43;;
18376;SDS011;9315;52.624;13.544;2023-04-24T02:21:26;8.70;;;6.57;;
18376;SDS011;9315;52.624;13.544;2023-04-24T02:23:54;7.47;;;6.00;;
18376;SDS011;9315;52.624;13.544;2023-04-24T02:26:21;8.67;;;6.20;;
18376;SDS011;9315;52.624;13.544;2023-04-24T02:28:48;5.83;;;4.57;;
18376;SDS011;9315;52.624;13.544;2023-04-24T02:31:16;8.50;;;5.97;;
18376;SDS011;9315;52.624;13.544;2023-04-24T02:33:43;6.17;;;5.10;;
18376;SDS011;9315;52.624;13.544;2023-04-24T02:36:10;5.97;;;5.37;;
18376;SDS011;9315;52.624;13.544;2023-04-24T02:38:37;9.23;;;6.50;;
18376;SDS011;9315;52.624;13.544;2023-04-24T02:41:04;7.57;;;6.77;;
18376;SDS011;9315;52.624;13.544;2023-04-24T02:43:32;9.37;;;6.97;;
18376;SDS011;9315;52.624;13.544;2023-04-24T02:45:59;10.93;;;7.33;;
18376;SDS011;9315;52.624;13.544;2023-04-24T02:48:27;7.60;;;5.73;;
18376;SDS011;9315;52.624;13.544;2023-04-24T02:50:54;5.70;;;4.10;;
18376;SDS011;9315;52.624;13.544;2023-04-24T02:53:21;6.17;;;4.60;;
18376;SDS011;9315;52.624;13.544;2023-04-24T02:55:49;8.13;;;5.97;;
18376;SDS011;9315;52.624;13.544;2023-04-24T02:58:16;7.57;;;5.23;;
18376;SDS011;9315;52.624;13.544;2023-04-24T03:00:46;5.60;;;4.53;;
18376;SDS011;9315;52.624;13.544;2023-04-24T03:03:13;6.87;;;4.80;;
18376;SDS011;9315;52.624;13.544;2023-04-24T03:05:41;7.53;;;5.97;;
18376;SDS011;9315;52.624;13.544;2023-04-24T03:08:08;7.00;;;5.57;;
18376;SDS011;9315;52.624;13.544;2023-04-24T03:10:36;8.60;;;5.50;;
18376;SDS011;9315;52.624;13.544;2023-04-24T03:13:03;6.40;;;5.33;;
18376;SDS011;9315;52.624;13.544;2023-04-24T03:15:36;7.17;;;4.37;;
18376;SDS011;9315;52.624;13.544;2023-04-24T03:18:03;5.47;;;4.43;;
18376;SDS011;9315;52.624;13.544;2023-04-24T03:20:30;4.30;;;3.80;;
18376;SDS011;9315;52.624;13.544;2023-04-24T03:22:58;7.30;;;5.70;;
18376;SDS011;9315;52.624;13.544;2023-04-24T03:25:25;5.37;;;4.87;;
18376;SDS011;9315;52.624;13.544;2023-04-24T03:27:52;6.80;;;5.13;;
18376;SDS011;9315;52.624;13.544;2023-04-24T03:30:20;6.97;;;5.60;;
18376;SDS011;9315;52.624;13.544;2023-04-24T03:32:47;7.80;;;6.07;;
18376;SDS011;9315;52.624;13.544;2023-04-24T03:35:15;6.03;;;4.40;;
18376;SDS011;9315;52.624;13.544;2023-04-24T03:37:42;6.47;;;4.80;;
18376;SDS011;9315;52.624;13.544;2023-04-24T03:40:09;4.60;;;4.10;;
18376;SDS011;9315;52.624;13.544;2023-04-24T03:42:36;5.93;;;4.57;;
18376;SDS011;9315;52.624;13.544;2023-04-24T03:45:04;4.13;;;3.47;;
18376;SDS011;9315;52.624;13.544;2023-04-24T03:47:33;6.90;;;5.30;;
18376;SDS011;9315;52.624;13.544;2023-04-24T03:50:00;5.77;;;4.33;;
18376;SDS011;9315;52.624;13.544;2023-04-24T03:52:28;6.40;;;4.07;;
18376;SDS011;9315;52.624;13.544;2023-04-24T03:54:55;5.90;;;4.30;;
18376;SDS011;9315;52.624;13.544;2023-04-24T03:57:22;6.53;;;5.60;;
18376;SDS011;9315;52.624;13.544;2023-04-24T03:59:49;5.77;;;5.17;;
18376;SDS011;9315;52.624;13.544;2023-04-24T04:02:17;7.37;;;5.50;;
18376;SDS011;9315;52.624;13.544;2023-04-24T04:04:44;4.07;;;3.60;;
18376;SDS011;9315;52.624;13.544;2023-04-24T04:07:12;7.40;;;5.40;;
18376;SDS011;9315;52.624;13.544;2023-04-24T04:09:39;5.37;;;4.83;;
18376;SDS011;9315;52.624;13.544;2023-04-24T04:12:07;9.83;;;5.70;;
18376;SDS011;9315;52.624;13.544;2023-04-24T04:14:34;5.90;;;4.50;;
18376;SDS011;9315;52.624;13.544;2023-04-24T04:17:01;8.30;;;5.93;;
18376;SDS011;9315;52.624;13.544;2023-04-24T04:19:28;7.50;;;4.73;;
18376;SDS011;9315;52.624;13.544;2023-04-24T04:21:55;8.47;;;4.80;;
18376;SDS011;9315;52.624;13.544;2023-04-24T04:24:23;9.63;;;6.30;;
18376;SDS011;9315;52.624;13.544;2023-04-24T04:26:50;7.87;;;4.20;;
18376;SDS011;9315;52.624;13.544;2023-04-24T04:29:18;4.83;;;4.10;;
18376;SDS011;9315;52.624;13.544;2023-04-24T04:31:45;5.30;;;4.10;;
18376;SDS011;9315;52.624;13.544;2023-04-24T04:34:12;8.30;;;5.07;;
18376;SDS011;9315;52.624;13.544;2023-04-24T04:36:41;5.47;;;4.50;;
18376;SDS011;9315;52.624;13.544;2023-04-24T04:39:17;6.77;;;4.53;;
18376;SDS011;9315;52.624;13.544;2023-04-24T04:41:44;6.17;;;5.23;;
18376;SDS011;9315;52.624;13.544;2023-04-24T04:44:15;5.10;;;4.47;;
18376;SDS011;9315;52.624;13.544;2023-04-24T04:46:42;6.43;;;5.00;;
18376;SDS011;9315;52.624;13.544;2023-04-24T04:49:10;6.10;;;5.10;;
18376;SDS011;9315;52.624;13.544;2023-04-24T04:51:37;9.00;;;5.73;;
18376;SDS011;9315;52.624;13.544;2023-04-24T04:54:08;7.10;;;6.00;;
18376;SDS011;9315;52.624;13.544;2023-04-24T04:56:35;7.50;;;5.87;;
18376;SDS011;9315;52.624;13.544;2023-04-24T04:59:02;11.57;;;6.17;;
18376;SDS011;9315;52.624;13.544;2023-04-24T05:01:38;8.87;;;6.43;;
18376;SDS011;9315;52.624;13.544;2023-04-24T05:04:11;8.17;;;5.53;;
18376;SDS011;9315;52.624;13.544;2023-04-24T05:06:38;6.73;;;5.63;;
18376;SDS011;9315;52.624;13.544;2023-04-24T05:09:05;11.53;;;6.23;;
18376;SDS011;9315;52.624;13.544;2023-04-24T05:11:33;9.73;;;5.40;;
18376;SDS011;9315;52.624;13.544;2023-04-24T05:14:03;9.20;;;5.63;;
18376;SDS011;9315;52.624;13.544;2023-04-24T05:16:30;5.53;;;4.57;;
18376;SDS011;9315;52.624;13.544;2023-04-24T05:19:00;10.13;;;5.43;;
18376;SDS011;9315;52.624;13.544;2023-04-24T05:21:27;6.53;;;5.43;;
18376;SDS011;9315;52.624;13.544;2023-04-24T05:23:55;11.67;;;5.70;;
18376;SDS011;9315;52.624;13.544;2023-04-24T05:26:23;10.33;;;5.30;;
18376;SDS011;9315;52.624;13.544;2023-04-24T05:28:50;12.90;;;5.70;;
18376;SDS011;9315;52.624;13.544;2023-04-24T05:31:17;9.57;;;5.67;;
18376;SDS011;9315;52.624;13.544;2023-04-24T05:33:44;12.33;;;5.47;;
18376;SDS011;9315;52.624;13.544;2023-04-24T05:36:12;6.10;;;4.77;;
18376;SDS011;9315;52.624;13.544;2023-04-24T05:38:39;8.13;;;4.70;;
18376;SDS011;9315;52.624;13.544;2023-04-24T05:41:06;6.63;;;4.10;;
18376;SDS011;9315;52.624;13.544;2023-04-24T05:43:33;8.17;;;4.23;;
18376;SDS011;9315;52.624;13.544;2023-04-24T05:46:00;6.27;;;4.00;;
18376;SDS011;9315;52.624;13.544;2023-04-24T05:48:28;6.43;;;3.73;;
18376;SDS011;9315;52.624;13.544;2023-04-24T05:50:55;8.50;;;3.93;;
18376;SDS011;9315;52.624;13.544;2023-04-24T05:53:25;5.43;;;3.97;;
18376;SDS011;9315;52.624;13.544;2023-04-24T05:55:52;5.73;;;3.47;;
18376;SDS011;9315;52.624;13.544;2023-04-24T05:58:20;8.73;;;3.73;;
18376;SDS011;9315;52.624;13.544;2023-04-24T06:00:47;5.23;;;3.57;;
18376;SDS011;9315;52.624;13.544;2023-04-24T06:03:16;6.10;;;3.67;;
18376;SDS011;9315;52.624;13.544;2023-04-24T06:05:47;4.30;;;3.50;;
18376;SDS011;9315;52.624;13.544;2023-04-24T06:08:16;6.93;;;3.30;;
18376;SDS011;9315;52.624;13.544;2023-04-24T06:10:43;5.77;;;3.13;;
18376;SDS011;9315;52.624;13.544;2023-04-24T06:13:11;9.10;;;3.40;;
18376;SDS011;9315;52.624;13.544;2023-04-24T06:15:41;4.07;;;2.90;;
18376;SDS011;9315;52.624;13.544;2023-04-24T06:18:09;6.83;;;2.90;;
18376;SDS011;9315;52.624;13.544;2023-04-24T06:20:36;4.93;;;2.37;;
18376;SDS011;9315;52.624;13.544;2023-04-24T06:23:04;3.43;;;2.37;;
18376;SDS011;9315;52.624;13.544;2023-04-24T06:25:31;2.23;;;2.03;;
18376;SDS011;9315;52.624;13.544;2023-04-24T06:27:58;5.67;;;2.03;;
18376;SDS011;9315;52.624;13.544;2023-04-24T06:30:26;3.07;;;1.97;;
18376;SDS011;9315;52.624;13.544;2023-04-24T06:32:55;5.30;;;1.70;;
18376;SDS011;9315;52.624;13.544;2023-04-24T06:35:34;2.67;;;1.93;;
18376;SDS011;9315;52.624;13.544;2023-04-24T06:38:04;2.43;;;1.70;;
18376;SDS011;9315;52.624;13.544;2023-04-24T06:40:31;3.50;;;1.57;;
18376;SDS011;9315;52.624;13.544;2023-04-24T06:43:00;2.90;;;1.63;;
18376;SDS011;9315;52.624;13.544;2023-04-24T06:45:30;1.67;;;1.40;;
18376;SDS011;9315;52.624;13.544;2023-04-24T06:48:00;2.70;;;1.77;;
18376;SDS011;9315;52.624;13.544;2023-04-24T06:50:27;4.80;;;1.80;;
18376;SDS011;9315;52.624;13.544;2023-04-24T06:52:55;2.43;;;1.60;;
18376;SDS011;9315;52.624;13.544;2023-04-24T06:55:22;2.47;;;1.73;;
18376;SDS011;9315;52.624;13.544;2023-04-24T06:57:50;3.87;;;1.37;;
18376;SDS011;9315;52.624;13.544;2023-04-24T07:00:17;2.23;;;1.40;;
18376;SDS011;9315;52.624;13.544;2023-04-24T07:02:44;5.70;;;1.43;;
18376;SDS011;9315;52.624;13.544;2023-04-24T07:05:11;3.00;;;1.37;;
18376;SDS011;9315;52.624;13.544;2023-04-24T07:07:39;5.70;;;1.23;;
18376;SDS011;9315;52.624;13.544;2023-04-24T07:10:06;3.57;;;1.43;;
18376;SDS011;9315;52.624;13.544;2023-04-24T07:12:34;2.90;;;1.40;;
18376;SDS011;9315;52.624;13.544;2023-04-24T07:15:02;2.23;;;1.00;;
18376;SDS011;9315;52.624;13.544;2023-04-24T07:17:32;3.87;;;1.00;;
18376;SDS011;9315;52.624;13.544;2023-04-24T07:19:59;1.10;;;0.70;;
18376;SDS011;9315;52.624;13.544;2023-04-24T07:22:26;2.07;;;1.00;;
18376;SDS011;9315;52.624;13.544;2023-04-24T07:24:54;2.03;;;0.93;;
18376;SDS011;9315;52.624;13.544;2023-04-24T07:27:21;1.67;;;1.00;;
18376;SDS011;9315;52.624;13.544;2023-04-24T07:29:48;1.07;;;0.80;;
18376;SDS011;9315;52.624;13.544;2023-04-24T07:32:15;5.17;;;1.13;;
18376;SDS011;9315;52.624;13.544;2023-04-24T07:34:42;4.50;;;0.87;;
18376;SDS011;9315;52.624;13.544;2023-04-24T07:37:10;3.73;;;1.00;;
18376;SDS011;9315;52.624;13.544;2023-04-24T07:39:37;1.83;;;0.67;;
18376;SDS011;9315;52.624;13.544;2023-04-24T07:42:04;5.10;;;0.70;;
18376;SDS011;9315;52.624;13.544;2023-04-24T07:44:31;1.33;;;0.60;;
18376;SDS011;9315;52.624;13.544;2023-04-24T07:46:58;1.07;;;0.40;;
18376;SDS011;9315;52.624;13.544;2023-04-24T07:49:25;1.60;;;0.47;;
18376;SDS011;9315;52.624;13.544;2023-04-24T07:51:54;0.80;;;0.50;;
18376;SDS011;9315;52.624;13.544;2023-04-24T07:54:21;0.90;;;0.50;;
18376;SDS011;9315;52.624;13.544;2023-04-24T07:56:48;2.70;;;0.50;;
18376;SDS011;9315;52.624;13.544;2023-04-24T07:59:15;0.60;;;0.40;;
18376;SDS011;9315;52.624;13.544;2023-04-24T08:01:42;2.57;;;0.40;;
18376;SDS011;9315;52.624;13.544;2023-04-24T08:04:16;0.40;;;0.40;;
18376;SDS011;9315;52.624;13.544;2023-04-24T08:06:44;1.63;;;0.50;;
18376;SDS011;9315;52.624;13.544;2023-04-24T08:09:11;1.47;;;0.30;;
18376;SDS011;9315;52.624;13.544;2023-04-24T08:11:39;2.67;;;0.30;;
18376;SDS011;9315;52.624;13.544;2023-04-24T08:14:06;2.73;;;0.40;;
18376;SDS011;9315;52.624;13.544;2023-04-24T08:16:33;3.27;;;0.77;;
18376;SDS011;9315;52.624;13.544;2023-04-24T08:19:01;1.20;;;0.35;;
18376;SDS011;9315;52.624;13.544;2023-04-24T08:21:28;1.55;;;0.43;;
18376;SDS011;9315;52.624;13.544;2023-04-24T08:23:56;2.43;;;0.30;;
18376;SDS011;9315;52.624;13.544;2023-04-24T08:26:23;3.33;;;0.50;;
18376;SDS011;9315;52.624;13.544;2023-04-24T08:28:51;0.93;;;0.27;;
18376;SDS011;9315;52.624;13.544;2023-04-24T08:31:19;1.30;;;0.40;;
18376;SDS011;9315;52.624;13.544;2023-04-24T08:33:47;1.67;;;0.30;;
18376;SDS011;9315;52.624;13.544;2023-04-24T08:36:14;0.50;;;0.30;;
18376;SDS011;9315;52.624;13.544;2023-04-24T08:38:41;0.20;;;0.20;;
18376;SDS011;9315;52.624;13.544;2023-04-24T08:41:09;0.57;;;0.30;;
18376;SDS011;9315;52.624;13.544;2023-04-24T08:43:37;0.60;;;0.20;;
18376;SDS011;9315;52.624;13.544;2023-04-24T08:46:06;0.28;;;0.20;;
18376;SDS011;9315;52.624;13.544;2023-04-24T08:48:37;1.38;;;0.40;;
18376;SDS011;9315;52.624;13.544;2023-04-24T08:51:06;2.70;;;0.52;;
18376;SDS011;9315;52.624;13.544;2023-04-24T08:53:35;3.15;;;0.40;;
18376;SDS011;9315;52.624;13.544;2023-04-24T08:56:06;0.88;;;0.35;;
18376;SDS011;9315;52.624;13.544;2023-04-24T08:58:33;0.68;;;0.30;;
18376;SDS011;9315;52.624;13.544;2023-04-24T09:01:01;1.85;;;0.47;;
18376;SDS011;9315;52.624;13.544;2023-04-24T09:03:33;0.38;;;0.30;;
18376;SDS011;9315;52.624;13.544;2023-04-24T09:06:02;0.73;;;0.30;;
18376;SDS011;9315;52.624;13.544;2023-04-24T09:08:30;1.27;;;0.40;;
18376;SDS011;9315;52.624;13.544;2023-04-24T09:10:58;2.47;;;0.30;;
18376;SDS011;9315;52.624;13.544;2023-04-24T09:13:28;1.40;;;0.22;;
18376;SDS011;9315;52.624;13.544;2023-04-24T09:15:56;2.00;;;0.20;;
18376;SDS011;9315;52.624;13.544;2023-04-24T09:18:23;1.98;;;0.40;;
18376;SDS011;9315;52.624;13.544;2023-04-24T09:23:31;1.00;;;0.30;;
18376;SDS011;9315;52.624;13.544;2023-04-24T09:25:59;0.57;;;0.20;;
18376;SDS011;9315;52.624;13.544;2023-04-24T09:31:15;1.00;;;0.40;;
18376;SDS011;9315;52.624;13.544;2023-04-24T09:33:57;0.47;;;0.20;;
18376;SDS011;9315;52.624;13.544;2023-04-24T09:39:15;1.88;;;0.20;;
18376;SDS011;9315;52.624;13.544;2023-04-24T09:41:47;2.17;;;0.30;;
18376;SDS011;9315;52.624;13.544;2023-04-24T09:44:26;0.20;;;0.20;;
18376;SDS011;9315;52.624;13.544;2023-04-24T09:46:57;0.65;;;0.20;;
18376;SDS011;9315;52.624;13.544;2023-04-24T09:49:27;0.25;;;0.15;;
18376;SDS011;9315;52.624;13.544;2023-04-24T09:52:10;0.60;;;0.20;;
18376;SDS011;9315;52.624;13.544;2023-04-24T09:54:38;1.45;;;0.30;;
18376;SDS011;9315;52.624;13.544;2023-04-24T09:57:08;1.65;;;0.30;;
18376;SDS011;9315;52.624;13.544;2023-04-24T09:59:35;2.45;;;0.20;;
18376;SDS011;9315;52.624;13.544;2023-04-24T10:02:18;2.83;;;0.10;;
18376;SDS011;9315;52.624;13.544;2023-04-24T10:04:56;2.23;;;0.30;;
18376;SDS011;9315;52.624;13.544;2023-04-24T10:07:26;0.50;;;0.20;;
18376;SDS011;9315;52.624;13.544;2023-04-24T10:09:53;1.85;;;0.30;;
18376;SDS011;9315;52.624;13.544;2023-04-24T10:12:21;1.85;;;0.40;;
18376;SDS011;9315;52.624;13.544;2023-04-24T10:14:51;1.35;;;0.40;;
18376;SDS011;9315;52.624;13.544;2023-04-24T10:17:19;1.95;;;0.40;;
18376;SDS011;9315;52.624;13.544;2023-04-24T10:19:47;6.47;;;0.68;;
18376;SDS011;9315;52.624;13.544;2023-04-24T10:22:15;0.22;;;0.22;;
18376;SDS011;9315;52.624;13.544;2023-04-24T10:24:43;0.35;;;0.22;;
18376;SDS011;9315;52.624;13.544;2023-04-24T10:27:11;0.70;;;0.35;;
18376;SDS011;9315;52.624;13.544;2023-04-24T10:29:41;4.15;;;0.47;;
18376;SDS011;9315;52.624;13.544;2023-04-24T10:32:11;10.30;;;0.60;;
18376;SDS011;9315;52.624;13.544;2023-04-24T10:34:38;2.90;;;0.28;;
18376;SDS011;9315;52.624;13.544;2023-04-24T10:37:06;1.60;;;0.40;;
18376;SDS011;9315;52.624;13.544;2023-04-24T10:39:34;0.82;;;0.32;;
18376;SDS011;9315;52.624;13.544;2023-04-24T10:42:13;1.67;;;0.30;;
18376;SDS011;9315;52.624;13.544;2023-04-24T10:44:42;1.35;;;0.20;;
18376;SDS011;9315;52.624;13.544;2023-04-24T10:47:13;3.47;;;0.50;;
18376;SDS011;9315;52.624;13.544;2023-04-24T10:49:40;2.95;;;0.50;;
18376;SDS011;9315;52.624;13.544;2023-04-24T10:52:11;1.77;;;0.50;;
18376;SDS011;9315;52.624;13.544;2023-04-24T10:54:44;1.42;;;0.40;;
18376;SDS011;9315;52.624;13.544;2023-04-24T11:00:15;0.88;;;0.25;;
18376;SDS011;9315;52.624;13.544;2023-04-24T11:02:48;1.75;;;0.40;;
18376;SDS011;9315;52.624;13.544;2023-04-24T11:05:19;3.03;;;0.30;;
18376;SDS011;9315;52.624;13.544;2023-04-24T11:08:36;3.80;;;0.30;;
18376;SDS011;9315;52.624;13.544;2023-04-24T11:11:13;4.15;;;0.30;;
18376;SDS011;9315;52.624;13.544;2023-04-24T11:16:43;3.08;;;0.40;;
18376;SDS011;9315;52.624;13.544;2023-04-24T11:19:20;2.42;;;0.40;;
18376;SDS011;9315;52.624;13.544;2023-04-24T11:21:58;0.65;;;0.28;;
18376;SDS011;9315;52.624;13.544;2023-04-24T11:24:48;3.13;;;0.38;;
18376;SDS011;9315;52.624;13.544;2023-04-24T11:27:22;2.60;;;0.20;;
18376;SDS011;9315;52.624;13.544;2023-04-24T11:32:28;0.77;;;0.32;;
18376;SDS011;9315;52.624;13.544;2023-04-24T11:35:15;0.60;;;0.30;;
18376;SDS011;9315;52.624;13.544;2023-04-24T11:37:46;4.72;;;0.50;;
18376;SDS011;9315;52.624;13.544;2023-04-24T11:40:36;1.42;;;0.47;;
18376;SDS011;9315;52.624;13.544;2023-04-24T11:43:05;2.13;;;0.40;;
18376;SDS011;9315;52.624;13.544;2023-04-24T11:45:36;1.98;;;0.28;;
18376;SDS011;9315;52.624;13.544;2023-04-24T11:48:03;0.50;;;0.20;;
18376;SDS011;9315;52.624;13.544;2023-04-24T11:50:33;2.80;;;0.40;;
18376;SDS011;9315;52.624;13.544;2023-04-24T11:53:03;6.63;;;0.40;;
18376;SDS011;9315;52.624;13.544;2023-04-24T11:55:31;2.60;;;0.40;;
18376;SDS011;9315;52.624;13.544;2023-04-24T11:57:59;3.58;;;0.30;;
18376;SDS011;9315;52.624;13.544;2023-04-24T12:00:30;0.47;;;0.32;;
18376;SDS011;9315;52.624;13.544;2023-04-24T12:03:09;2.90;;;0.47;;
18376;SDS011;9315;52.624;13.544;2023-04-24T12:05:38;3.30;;;0.47;;
18376;SDS011;9315;52.624;13.544;2023-04-24T12:08:07;3.13;;;0.75;;
18376;SDS011;9315;52.624;13.544;2023-04-24T12:17:25;2.22;;;0.30;;
18376;SDS011;9315;52.624;13.544;2023-04-24T12:20:05;4.43;;;0.50;;
18376;SDS011;9315;52.624;13.544;2023-04-24T12:22:53;0.68;;;0.30;;
18376;SDS011;9315;52.624;13.544;2023-04-24T12:25:30;7.05;;;0.40;;
18376;SDS011;9315;52.624;13.544;2023-04-24T12:33:20;1.30;;;0.30;;
18376;SDS011;9315;52.624;13.544;2023-04-24T12:35:48;3.50;;;0.40;;
18376;SDS011;9315;52.624;13.544;2023-04-24T12:38:23;1.70;;;0.40;;
18376;SDS011;9315;52.624;13.544;2023-04-24T12:41:02;3.75;;;0.47;;
18376;SDS011;9315;52.624;13.544;2023-04-24T12:43:36;0.98;;;0.40;;
18376;SDS011;9315;52.624;13.544;2023-04-24T12:46:05;1.58;;;0.55;;
18376;SDS011;9315;52.624;13.544;2023-04-24T12:48:33;1.55;;;0.50;;
18376;SDS011;9315;52.624;13.544;2023-04-24T12:51:00;3.92;;;0.43;;
18376;SDS011;9315;52.624;13.544;2023-04-24T12:53:28;5.28;;;0.57;;
18376;SDS011;9315;52.624;13.544;2023-04-24T12:55:57;1.90;;;0.30;;
18376;SDS011;9315;52.624;13.544;2023-04-24T12:58:27;0.95;;;0.30;;
18376;SDS011;9315;52.624;13.544;2023-04-24T13:01:05;2.63;;;0.38;;
18376;SDS011;9315;52.624;13.544;2023-04-24T13:03:32;0.68;;;0.50;;
18376;SDS011;9315;52.624;13.544;2023-04-24T13:06:00;1.10;;;0.45;;
18376;SDS011;9315;52.624;13.544;2023-04-24T13:08:27;5.03;;;0.43;;
18376;SDS011;9315;52.624;13.544;2023-04-24T13:10:57;0.73;;;0.30;;
18376;SDS011;9315;52.624;13.544;2023-04-24T13:13:24;4.57;;;0.47;;
18376;SDS011;9315;52.624;13.544;2023-04-24T13:15:51;6.00;;;0.40;;
18376;SDS011;9315;52.624;13.544;2023-04-24T13:18:19;0.90;;;0.30;;
18376;SDS011;9315;52.624;13.544;2023-04-24T13:20:46;1.88;;;0.32;;
18376;SDS011;9315;52.624;13.544;2023-04-24T13:23:22;1.73;;;0.20;;
18376;SDS011;9315;52.624;13.544;2023-04-24T13:25:49;0.45;;;0.20;;
18376;SDS011;9315;52.624;13.544;2023-04-24T13:28:16;2.60;;;0.40;;
18376;SDS011;9315;52.624;13.544;2023-04-24T13:30:43;0.55;;;0.32;;
18376;SDS011;9315;52.624;13.544;2023-04-24T13:33:10;0.70;;;0.30;;
18376;SDS011;9315;52.624;13.544;2023-04-24T13:35:38;1.13;;;0.40;;
18376;SDS011;9315;52.624;13.544;2023-04-24T13:38:05;3.67;;;0.73;;
18376;SDS011;9315;52.624;13.544;2023-04-24T13:40:34;1.25;;;0.60;;
18376;SDS011;9315;52.624;13.544;2023-04-24T13:43:02;2.50;;;0.40;;
18376;SDS011;9315;52.624;13.544;2023-04-24T13:45:29;4.25;;;0.40;;
18376;SDS011;9315;52.624;13.544;2023-04-24T13:47:56;4.45;;;0.47;;
18376;SDS011;9315;52.624;13.544;2023-04-24T13:50:23;6.97;;;0.50;;
18376;SDS011;9315;52.624;13.544;2023-04-24T13:52:51;5.38;;;0.47;;
18376;SDS011;9315;52.624;13.544;2023-04-24T13:55:19;0.65;;;0.50;;
18376;SDS011;9315;52.624;13.544;2023-04-24T13:57:46;2.08;;;0.50;;
18376;SDS011;9315;52.624;13.544;2023-04-24T14:00:13;6.07;;;0.80;;
18376;SDS011;9315;52.624;13.544;2023-04-24T14:02:44;2.17;;;0.50;;
18376;SDS011;9315;52.624;13.544;2023-04-24T14:05:12;7.13;;;0.60;;
18376;SDS011;9315;52.624;13.544;2023-04-24T14:07:41;1.83;;;0.40;;
18376;SDS011;9315;52.624;13.544;2023-04-24T14:10:08;1.08;;;0.45;;
18376;SDS011;9315;52.624;13.544;2023-04-24T14:12:36;2.78;;;0.40;;
18376;SDS011;9315;52.624;13.544;2023-04-24T14:15:03;6.30;;;0.40;;
18376;SDS011;9315;52.624;13.544;2023-04-24T14:17:33;1.27;;;0.40;;
18376;SDS011;9315;52.624;13.544;2023-04-24T14:20:00;3.60;;;0.70;;
18376;SDS011;9315;52.624;13.544;2023-04-24T14:22:29;2.17;;;0.40;;
18376;SDS011;9315;52.624;13.544;2023-04-24T14:24:56;0.73;;;0.30;;
18376;SDS011;9315;52.624;13.544;2023-04-24T14:27:24;1.58;;;0.30;;
18376;SDS011;9315;52.624;13.544;2023-04-24T14:29:54;4.18;;;0.50;;
18376;SDS011;9315;52.624;13.544;2023-04-24T14:32:22;3.58;;;0.60;;
18376;SDS011;9315;52.624;13.544;2023-04-24T14:34:49;4.15;;;0.40;;
18376;SDS011;9315;52.624;13.544;2023-04-24T14:37:16;1.27;;;0.40;;
18376;SDS011;9315;52.624;13.544;2023-04-24T14:39:43;1.13;;;0.30;;
18376;SDS011;9315;52.624;13.544;2023-04-24T14:42:26;0.55;;;0.30;;
18376;SDS011;9315;52.624;13.544;2023-04-24T14:44:55;0.93;;;0.40;;
18376;SDS011;9315;52.624;13.544;2023-04-24T14:47:22;1.05;;;0.30;;
18376;SDS011;9315;52.624;13.544;2023-04-24T14:49:50;2.97;;;0.47;;
18376;SDS011;9315;52.624;13.544;2023-04-24T14:52:18;5.47;;;0.40;;
18376;SDS011;9315;52.624;13.544;2023-04-24T14:54:46;0.55;;;0.35;;
18376;SDS011;9315;52.624;13.544;2023-04-24T14:57:13;0.50;;;0.50;;
18376;SDS011;9315;52.624;13.544;2023-04-24T14:59:41;0.55;;;0.32;;
18376;SDS011;9315;52.624;13.544;2023-04-24T15:02:09;2.55;;;0.30;;
18376;SDS011;9315;52.624;13.544;2023-04-24T15:04:42;0.82;;;0.47;;
18376;SDS011;9315;52.624;13.544;2023-04-24T15:07:10;1.70;;;0.30;;
18376;SDS011;9315;52.624;13.544;2023-04-24T15:09:37;4.55;;;0.43;;
18376;SDS011;9315;52.624;13.544;2023-04-24T15:12:04;2.85;;;0.30;;
18376;SDS011;9315;52.624;13.544;2023-04-24T15:14:31;1.92;;;0.40;;
18376;SDS011;9315;52.624;13.544;2023-04-24T15:17:01;0.47;;;0.40;;
18376;SDS011;9315;52.624;13.544;2023-04-24T15:19:28;0.40;;;0.40;;
18376;SDS011;9315;52.624;13.544;2023-04-24T15:21:57;1.23;;;0.60;;
18376;SDS011;9315;52.624;13.544;2023-04-24T15:24:25;1.08;;;0.40;;
18376;SDS011;9315;52.624;13.544;2023-04-24T15:26:54;0.60;;;0.38;;